Time;durP1;ratioP1;P1;durP2;ratioP2;P2;SDS_P1;SDS_P2;PMS_P1;PMS_P2;Temp;Humidity;BMP_temperature;BMP_pressure;BME280_temperature;BME280_humidity;BME280_pressure;Samples;Min_cycle;Max_cycle;Signal;HPM_P1;HPM_P2
2022/04/06 00:00:49;;;;;;;34.88;13.95;;;8.30;99.90;;;;;;5041651;28;20049;-41
2022/04/06 00:03:14;;;;;;;31.50;12.52;;;8.30;99.90;;;;;;5041240;28;20598;-43
2022/04/06 00:05:41;;;;;;;33.50;14.15;;;8.40;99.90;;;;;;5039678;28;20160;-41
2022/04/06 00:08:07;;;;;;;26.73;12.68;;;8.40;99.90;;;;;;5040985;28;20052;-42
2022/04/06 00:10:33;;;;;;;30.98;13.15;;;8.40;99.90;;;;;;5039729;28;20045;-42
2022/04/06 00:12:59;;;;;;;34.88;13.35;;;8.40;99.90;;;;;;5041923;28;20222;-42
2022/04/06 00:15:25;;;;;;;30.50;13.85;;;8.40;99.90;;;;;;5028868;28;20071;-41
2022/04/06 00:17:51;;;;;;;37.45;14.40;;;8.40;99.90;;;;;;5040408;28;20059;-41
2022/04/06 00:20:17;;;;;;;28.73;13.63;;;8.40;99.90;;;;;;5019868;28;20467;-42
2022/04/06 00:22:43;;;;;;;29.63;12.43;;;8.40;99.90;;;;;;5041257;28;20045;-41
2022/04/06 00:25:10;;;;;;;29.70;10.98;;;8.40;99.90;;;;;;5037961;28;20642;-43
2022/04/06 00:27:36;;;;;;;29.75;12.77;;;8.40;99.90;;;;;;5034907;28;20487;-41
2022/04/06 00:30:04;;;;;;;26.35;12.77;;;8.40;99.90;;;;;;5041235;28;20051;-43
2022/04/06 00:32:29;;;;;;;32.67;12.88;;;8.40;99.90;;;;;;5032841;28;20576;-41
2022/04/06 00:37:39;;;;;;;29.05;11.00;;;8.50;99.90;;;;;;5040915;28;20159;-42
2022/04/06 00:40:08;;;;;;;36.35;11.90;;;8.50;99.90;;;;;;5023967;28;20045;-41
2022/04/06 00:42:34;;;;;;;22.35;10.60;;;8.50;99.90;;;;;;5042750;28;20088;-41
2022/04/06 00:45:00;;;;;;;34.35;11.15;;;8.50;99.90;;;;;;5042099;28;20126;-42
2022/04/06 00:47:26;;;;;;;25.45;11.02;;;8.50;99.90;;;;;;5031107;28;20095;-42
2022/04/06 00:49:52;;;;;;;24.55;10.45;;;8.50;99.90;;;;;;5042075;28;20586;-42
2022/04/06 00:52:19;;;;;;;33.88;11.70;;;8.60;99.90;;;;;;5028197;28;20838;-46
2022/04/06 00:54:47;;;;;;;29.58;10.77;;;8.50;99.90;;;;;;5025494;28;20049;-42
2022/04/06 00:57:13;;;;;;;25.45;11.23;;;8.60;99.90;;;;;;5037263;28;20496;-42
2022/04/06 00:59:41;;;;;;;25.35;10.25;;;8.50;99.90;;;;;;5039390;28;20097;-42
2022/04/06 01:02:08;;;;;;;25.77;10.93;;;8.50;99.90;;;;;;5031139;28;20454;-43
2022/04/06 01:04:34;;;;;;;26.90;10.98;;;8.50;99.90;;;;;;5004714;28;20092;-42
2022/04/06 01:06:59;;;;;;;20.95;10.13;;;8.50;99.90;;;;;;5038507;28;20147;-42
2022/04/06 01:09:27;;;;;;;26.70;10.15;;;8.50;99.90;;;;;;5029513;28;20072;-42
2022/04/06 01:11:53;;;;;;;26.40;11.05;;;8.50;99.90;;;;;;5022193;28;20482;-42
2022/04/06 01:14:19;;;;;;;23.92;9.88;;;8.50;99.90;;;;;;5025347;28;20049;-42
2022/04/06 01:17:07;;;;;;;24.42;9.93;;;8.50;99.90;;;;;;5035808;28;20052;-43
2022/04/06 01:19:35;;;;;;;19.48;9.32;;;8.50;99.90;;;;;;5023871;28;20464;-44
2022/04/06 01:22:08;;;;;;;23.40;9.30;;;8.50;99.90;;;;;;5032139;28;20045;-43
2022/04/06 01:24:34;;;;;;;;;;;8.50;99.90;;;;;;5033530;28;20083;-42
2022/04/06 01:27:04;;;;;;;17.70;8.63;;;8.50;99.90;;;;;;5036170;28;19929;-42
2022/04/06 01:29:30;;;;;;;23.50;8.80;;;8.50;99.90;;;;;;5033645;28;20049;-41
2022/04/06 01:32:05;;;;;;;21.67;8.85;;;8.50;99.90;;;;;;5036334;28;20124;-41
2022/04/06 01:34:33;;;;;;;22.33;8.63;;;8.50;99.90;;;;;;5027936;28;20057;-41
2022/04/06 01:36:58;;;;;;;19.45;7.63;;;8.50;99.90;;;;;;5034403;28;20575;-42
2022/04/06 01:39:24;;;;;;;17.88;7.40;;;8.50;99.90;;;;;;5029258;28;20227;-41
2022/04/06 01:41:50;;;;;;;14.00;6.78;;;8.50;99.90;;;;;;5027092;28;20049;-42
2022/04/06 01:44:16;;;;;;;16.92;6.60;;;8.50;99.90;;;;;;5035663;28;20405;-42
2022/04/06 01:46:41;;;;;;;13.52;6.00;;;8.50;99.90;;;;;;5039603;28;20269;-43
2022/04/06 01:54:36;;;;;;;13.27;6.10;;;8.60;99.90;;;;;;5039918;28;20048;-42
2022/04/06 01:57:02;;;;;;;11.95;4.85;;;8.50;99.90;;;;;;5022484;28;20073;-43
2022/04/06 01:59:28;;;;;;;14.60;4.43;;;8.60;99.90;;;;;;5041372;28;20072;-42
2022/04/06 02:01:54;;;;;;;14.38;5.15;;;8.50;99.90;;;;;;5044157;28;20071;-42
2022/04/06 02:04:20;;;;;;;11.38;4.10;;;8.60;99.90;;;;;;5040135;28;20041;-43
2022/04/06 02:06:46;;;;;;;10.38;4.25;;;8.60;99.90;;;;;;5030704;28;20801;-41
2022/04/06 02:09:11;;;;;;;11.48;4.15;;;8.60;99.90;;;;;;5040590;28;20553;-42
2022/04/06 02:11:38;;;;;;;13.50;3.90;;;8.50;99.90;;;;;;5039209;28;20060;-42
2022/04/06 02:14:07;;;;;;;9.10;3.70;;;8.50;99.90;;;;;;5039415;28;20055;-42
2022/04/06 02:16:34;;;;;;;11.55;3.63;;;8.60;99.90;;;;;;5039422;28;20045;-42
2022/04/06 02:19:00;;;;;;;12.43;3.95;;;8.50;99.90;;;;;;5033917;28;20058;-42
2022/04/06 02:21:26;;;;;;;12.18;3.47;;;8.60;99.90;;;;;;5033651;28;20053;-43
2022/04/06 02:23:51;;;;;;;7.65;3.17;;;8.60;99.90;;;;;;5033343;28;20189;-41
2022/04/06 02:26:17;;;;;;;8.38;3.42;;;8.60;99.90;;;;;;5032320;28;20409;-42
2022/04/06 02:28:43;;;;;;;13.45;3.83;;;8.60;99.90;;;;;;5039518;28;20147;-42
2022/04/06 02:31:11;;;;;;;11.55;3.30;;;8.60;99.90;;;;;;5031013;28;20127;-42
2022/04/06 02:33:37;;;;;;;10.35;4.10;;;8.60;99.90;;;;;;5033904;28;20037;-42
2022/04/06 02:36:03;;;;;;;9.70;3.97;;;8.60;99.90;;;;;;5019149;28;20060;-42
2022/04/06 02:38:30;;;;;;;9.65;3.22;;;8.60;99.90;;;;;;5020617;28;20519;-42
2022/04/06 02:40:56;;;;;;;11.52;3.53;;;8.60;99.90;;;;;;5029635;28;20123;-43
2022/04/06 02:43:27;;;;;;;11.38;3.47;;;8.60;99.90;;;;;;5029653;28;20472;-42
2022/04/06 02:45:52;;;;;;;13.10;3.47;;;8.50;99.90;;;;;;5038400;28;20124;-42
2022/04/06 02:48:18;;;;;;;12.15;4.10;;;8.50;99.90;;;;;;5021613;28;20457;-42
2022/04/06 02:50:44;;;;;;;10.77;3.95;;;8.60;99.90;;;;;;5021550;28;20072;-42
2022/04/06 02:53:09;;;;;;;16.60;5.03;;;8.50;99.90;;;;;;5020615;28;20048;-42
2022/04/06 02:55:38;;;;;;;10.30;4.38;;;8.50;99.90;;;;;;5029370;28;20460;-41
2022/04/06 02:58:04;;;;;;;11.85;5.05;;;8.50;99.90;;;;;;5038830;28;20433;-43
2022/04/06 03:00:32;;;;;;;11.73;4.22;;;8.50;99.90;;;;;;5022964;28;20056;-42
2022/04/06 03:02:58;;;;;;;11.65;5.38;;;8.50;99.90;;;;;;5022615;28;20373;-42
2022/04/06 03:05:25;;;;;;;20.15;6.10;;;8.40;99.90;;;;;;5026708;28;20130;-42
2022/04/06 03:07:51;;;;;;;17.25;6.03;;;8.40;99.90;;;;;;5042808;28;20145;-43
2022/04/06 03:10:17;;;;;;;16.08;5.65;;;8.40;99.90;;;;;;5044163;28;20167;-43
2022/04/06 03:12:43;;;;;;;15.77;5.35;;;8.40;99.90;;;;;;5043865;28;20155;-42
2022/04/06 03:15:09;;;;;;;18.17;6.10;;;8.40;99.90;;;;;;5027440;28;20061;-45
2022/04/06 03:17:35;;;;;;;19.73;6.70;;;8.40;99.90;;;;;;5043841;28;20053;-42
2022/04/06 03:20:05;;;;;;;18.42;7.03;;;8.30;99.90;;;;;;5025912;28;20041;-43
2022/04/06 03:22:31;;;;;;;18.30;5.93;;;8.40;99.90;;;;;;5036670;28;20045;-41
2022/04/06 03:24:57;;;;;;;19.38;6.30;;;8.40;99.90;;;;;;5039487;28;20048;-41
2022/04/06 03:27:23;;;;;;;18.45;7.25;;;8.40;99.90;;;;;;5042266;28;20102;-42
2022/04/06 03:29:49;;;;;;;19.13;6.68;;;8.40;99.90;;;;;;5041498;28;20049;-42
2022/04/06 03:32:14;;;;;;;24.73;9.05;;;8.40;99.90;;;;;;5034376;28;20527;-43
2022/04/06 03:34:40;;;;;;;19.83;8.07;;;8.40;99.90;;;;;;5027656;28;20045;-42
2022/04/06 03:37:06;;;;;;;21.60;8.25;;;8.40;99.90;;;;;;5020933;28;20197;-43
2022/04/06 03:39:35;;;;;;;25.95;8.52;;;8.40;99.90;;;;;;5032459;28;20122;-42
2022/04/06 03:42:01;;;;;;;24.42;9.27;;;8.40;99.90;;;;;;5034020;28;20439;-42
2022/04/06 03:44:27;;;;;;;23.63;8.48;;;8.30;99.90;;;;;;5039189;28;20095;-42
2022/04/06 03:46:53;;;;;;;20.58;9.35;;;8.40;99.90;;;;;;5040772;28;20041;-41
2022/04/06 03:49:19;;;;;;;21.48;8.98;;;8.40;99.90;;;;;;5041176;28;20431;-42
2022/04/06 03:51:45;;;;;;;23.58;10.13;;;8.40;99.90;;;;;;5025299;28;20492;-43
2022/04/06 03:54:11;;;;;;;32.75;12.02;;;8.40;99.90;;;;;;5040938;28;20083;-42
2022/04/06 03:56:38;;;;;;;27.95;10.57;;;8.40;99.90;;;;;;5040386;28;20049;-42
2022/04/06 03:59:04;;;;;;;18.50;9.18;;;8.40;99.90;;;;;;5030461;28;20053;-42
2022/04/06 04:01:31;;;;;;;28.75;11.38;;;8.40;99.90;;;;;;5042221;28;20120;-41
2022/04/06 04:03:57;;;;;;;22.60;9.82;;;8.40;99.90;;;;;;5024244;28;20045;-41
2022/04/06 04:06:23;;;;;;;22.60;11.68;;;8.40;99.90;;;;;;5044960;28;20056;-42
2022/04/06 04:08:48;;;;;;;24.00;10.45;;;8.30;99.90;;;;;;5058844;28;20059;-41
2022/04/06 04:11:14;;;;;;;24.17;10.27;;;8.40;99.90;;;;;;5056794;28;20090;-42
2022/04/06 04:13:40;;;;;;;25.42;11.00;;;8.30;99.90;;;;;;5039702;28;20095;-42
2022/04/06 04:16:06;;;;;;;25.98;9.70;;;8.30;99.90;;;;;;5056009;28;20155;-41
2022/04/06 04:18:32;;;;;;;25.58;10.73;;;8.30;99.90;;;;;;5066829;28;20076;-42
2022/04/06 04:23:42;;;;;;;27.67;10.35;;;8.30;99.90;;;;;;5051641;28;20095;-41
2022/04/06 04:26:13;;;;;;;27.05;9.48;;;8.30;99.90;;;;;;5056313;28;20540;-42
2022/04/06 04:28:39;;;;;;;21.73;8.23;;;8.30;99.90;;;;;;5063326;28;20147;-42
2022/04/06 04:31:05;;;;;;;28.85;9.32;;;8.20;99.90;;;;;;5053225;28;20048;-43
2022/04/06 04:33:31;;;;;;;28.83;9.52;;;8.30;99.90;;;;;;5062513;28;20048;-41
2022/04/06 04:35:57;;;;;;;20.75;7.60;;;8.20;99.90;;;;;;5061034;28;20063;-42
2022/04/06 04:38:23;;;;;;;20.02;8.55;;;8.20;99.90;;;;;;5061571;28;20542;-41
2022/04/06 04:40:54;;;;;;;22.17;7.80;;;8.20;99.90;;;;;;5058233;28;20055;-41
2022/04/06 04:43:20;;;;;;;25.40;8.40;;;8.20;99.90;;;;;;5062447;28;20048;-42
2022/04/06 04:45:46;;;;;;;21.75;7.78;;;8.10;99.90;;;;;;5054390;28;20098;-42
2022/04/06 04:48:12;;;;;;;28.10;8.63;;;8.10;99.90;;;;;;5051235;28;20048;-41
2022/04/06 04:50:38;;;;;;;23.85;8.07;;;8.10;99.90;;;;;;5060263;28;20175;-41
2022/04/06 04:53:05;;;;;;;21.98;8.70;;;8.10;99.90;;;;;;5038441;28;20052;-41
2022/04/06 04:55:32;;;;;;;26.85;8.00;;;8.00;99.90;;;;;;5043425;28;20556;-41
2022/04/06 04:57:58;;;;;;;23.25;7.57;;;8.10;99.90;;;;;;5035021;28;20044;-41
2022/04/06 05:00:24;;;;;;;23.75;7.28;;;8.00;99.90;;;;;;5060184;28;20079;-42
2022/04/06 05:02:49;;;;;;;21.63;6.90;;;8.00;99.90;;;;;;5062381;28;20059;-43
2022/04/06 05:05:15;;;;;;;24.08;7.10;;;8.00;99.90;;;;;;5042981;28;20151;-41
2022/04/06 05:07:41;;;;;;;25.55;7.65;;;8.00;99.90;;;;;;5063646;28;20134;-42
2022/04/06 05:10:08;;;;;;;21.25;7.47;;;8.10;99.90;;;;;;5054185;28;20049;-41
2022/04/06 05:12:34;;;;;;;20.10;7.28;;;8.00;99.90;;;;;;5058310;28;20055;-41
2022/04/06 05:15:02;;;;;;;20.00;8.25;;;8.00;99.90;;;;;;5066089;28;20054;-42
2022/04/06 05:17:28;;;;;;;22.73;7.40;;;7.90;99.90;;;;;;5050553;28;20095;-41
2022/04/06 05:19:54;;;;;;;21.85;7.80;;;8.00;99.90;;;;;;5049230;28;20046;-41
2022/04/06 05:22:21;;;;;;;28.48;8.77;;;8.00;99.90;;;;;;5057494;28;20040;-41
2022/04/06 05:24:47;;;;;;;21.08;9.27;;;8.00;99.90;;;;;;5053903;28;20123;-41
2022/04/06 05:27:13;;;;;;;18.70;7.30;;;7.90;99.90;;;;;;5050225;28;20419;-42
2022/04/06 05:29:39;;;;;;;28.25;7.47;;;7.90;99.90;;;;;;5055317;28;20388;-43
2022/04/06 05:32:05;;;;;;;23.60;6.35;;;7.80;99.90;;;;;;5052971;28;20069;-41
2022/04/06 05:34:31;;;;;;;19.40;6.20;;;7.80;99.90;;;;;;5058080;28;20122;-42
2022/04/06 05:36:56;;;;;;;19.70;6.53;;;7.80;99.90;;;;;;5025535;28;20052;-41
2022/04/06 05:39:22;;;;;;;31.50;7.50;;;7.90;99.90;;;;;;5057908;28;20062;-43
2022/04/06 05:41:49;;;;;;;22.27;6.63;;;7.90;99.90;;;;;;5051523;28;20045;-41
2022/04/06 05:44:16;;;;;;;19.10;6.15;;;7.80;99.90;;;;;;5055293;28;20135;-43
2022/04/06 05:46:42;;;;;;;17.00;6.60;;;7.90;99.90;;;;;;5056368;28;20056;-41
2022/04/06 05:49:08;;;;;;;22.20;6.18;;;7.80;99.90;;;;;;5040493;28;20054;-41
2022/04/06 05:51:34;;;;;;;21.10;6.70;;;7.80;99.90;;;;;;5052910;28;20060;-41
2022/04/06 05:54:02;;;;;;;25.70;7.45;;;7.90;99.90;;;;;;5063253;28;20036;-41
2022/04/06 05:56:28;;;;;;;26.10;7.18;;;7.90;99.90;;;;;;5040983;28;20044;-41
2022/04/06 05:58:55;;;;;;;20.77;7.68;;;7.90;99.90;;;;;;5048412;28;20540;-42
2022/04/06 06:01:26;;;;;;;23.20;7.53;;;7.80;99.90;;;;;;5058617;28;20123;-41
2022/04/06 06:03:52;;;;;;;23.40;6.47;;;7.80;99.90;;;;;;5057133;28;20487;-41
2022/04/06 06:06:18;;;;;;;22.10;6.75;;;7.70;99.90;;;;;;5030467;28;20041;-41
2022/04/06 06:08:43;;;;;;;18.15;6.95;;;7.80;99.90;;;;;;5038861;28;20554;-40
2022/04/06 06:11:09;;;;;;;18.83;5.30;;;7.90;99.90;;;;;;5039563;28;20049;-41
2022/04/06 06:13:35;;;;;;;19.08;6.18;;;7.80;99.90;;;;;;5037858;28;20519;-42
2022/04/06 06:16:01;;;;;;;21.13;5.70;;;7.90;99.90;;;;;;5021148;28;20049;-40
2022/04/06 06:18:29;;;;;;;15.32;4.82;;;7.90;99.90;;;;;;5027538;28;20054;-42
2022/04/06 06:20:57;;;;;;;23.98;5.68;;;7.80;99.90;;;;;;5039044;28;20582;-41
2022/04/06 06:23:22;;;;;;;13.52;4.00;;;7.90;99.90;;;;;;5026415;28;20071;-41
2022/04/06 06:25:48;;;;;;;20.83;4.45;;;7.80;99.90;;;;;;5040322;28;20475;-41
2022/04/06 06:28:14;;;;;;;21.02;4.30;;;7.90;99.90;;;;;;5037857;28;20110;-42
2022/04/06 06:30:40;;;;;;;16.52;4.43;;;7.80;99.90;;;;;;5031140;28;20052;-41
2022/04/06 06:33:11;;;;;;;18.98;4.60;;;7.90;99.90;;;;;;5028746;28;20058;-41
2022/04/06 06:35:40;;;;;;;17.38;4.18;;;7.80;99.90;;;;;;5022035;28;20541;-41
2022/04/06 06:38:06;;;;;;;15.60;5.05;;;7.90;99.90;;;;;;5040994;28;20179;-41
2022/04/06 06:40:31;;;;;;;18.02;4.25;;;8.00;99.90;;;;;;5043784;28;20569;-41
2022/04/06 06:42:57;;;;;;;17.17;4.85;;;7.90;99.90;;;;;;5034299;28;20045;-42
2022/04/06 06:45:23;;;;;;;17.60;3.67;;;7.90;99.90;;;;;;5043773;28;20045;-41
2022/04/06 06:47:49;;;;;;;17.02;4.10;;;7.90;99.90;;;;;;5041369;28;20503;-41
2022/04/06 06:50:16;;;;;;;16.65;4.50;;;8.00;99.90;;;;;;5043887;28;20163;-41
2022/04/06 06:52:42;;;;;;;17.80;4.40;;;7.90;99.90;;;;;;5039941;28;20049;-41
2022/04/06 06:55:08;;;;;;;15.18;3.50;;;7.90;99.90;;;;;;5028038;28;20078;-41
2022/04/06 06:57:37;;;;;;;14.50;4.28;;;7.90;99.90;;;;;;5037492;28;20056;-44
2022/04/06 07:00:04;;;;;;;16.75;4.25;;;7.90;99.90;;;;;;5020682;28;20057;-42
2022/04/06 07:02:30;;;;;;;18.00;4.40;;;7.90;99.90;;;;;;5039222;28;20045;-41
2022/04/06 07:04:56;;;;;;;13.85;3.63;;;8.00;99.90;;;;;;5026273;28;20060;-40
2022/04/06 07:07:21;;;;;;;17.38;4.72;;;7.90;99.90;;;;;;5043711;28;20060;-41
2022/04/06 07:10:03;;;;;;;14.15;3.80;;;7.90;99.90;;;;;;5045106;28;20045;-41
2022/04/06 07:12:37;;;;;;;20.08;4.35;;;7.90;99.90;;;;;;5023840;28;20087;-41
2022/04/06 07:15:03;;;;;;;16.67;4.85;;;8.00;99.90;;;;;;5049310;28;20049;-42
2022/04/06 07:17:29;;;;;;;17.67;4.40;;;7.90;99.90;;;;;;5026221;28;20059;-41
2022/04/06 07:19:56;;;;;;;17.05;3.95;;;7.90;99.90;;;;;;5044600;28;20048;-41
2022/04/06 07:22:22;;;;;;;16.73;4.32;;;8.00;99.90;;;;;;5039775;28;20056;-41
2022/04/06 07:24:52;;;;;;;22.02;4.25;;;8.00;99.90;;;;;;5037977;28;20041;-41
2022/04/06 07:27:18;;;;;;;15.45;4.93;;;8.00;99.90;;;;;;5041047;28;20128;-41
2022/04/06 07:29:44;;;;;;;24.50;5.38;;;8.00;99.90;;;;;;5021546;28;20087;-42
2022/04/06 07:32:10;;;;;;;21.98;5.47;;;8.10;99.90;;;;;;5040499;28;20094;-41
2022/04/06 07:34:35;;;;;;;18.77;4.43;;;8.00;99.90;;;;;;5029664;28;20511;-41
2022/04/06 07:37:01;;;;;;;27.05;4.85;;;8.10;99.90;;;;;;5034381;28;20499;-41
2022/04/06 07:39:27;;;;;;;26.63;5.30;;;8.00;99.90;;;;;;5032221;28;20648;-41
2022/04/06 07:41:56;;;;;;;17.83;4.38;;;8.10;99.90;;;;;;5040728;28;20048;-42
2022/04/06 07:44:23;;;;;;;20.70;4.28;;;8.10;99.90;;;;;;5031503;28;20568;-41
2022/04/06 07:46:59;;;;;;;18.50;4.82;;;8.10;99.90;;;;;;5026462;28;20081;-41
2022/04/06 07:49:24;;;;;;;21.55;5.60;;;8.10;99.90;;;;;;5031099;28;20575;-41
2022/04/06 07:51:50;;;;;;;23.40;5.35;;;8.10;99.90;;;;;;5041241;28;20428;-40
2022/04/06 07:54:15;;;;;;;23.98;5.00;;;8.10;99.90;;;;;;5040313;28;20037;-41
2022/04/06 07:56:47;;;;;;;20.70;4.30;;;8.10;99.90;;;;;;5040537;28;20131;-41
2022/04/06 07:59:16;;;;;;;19.13;4.65;;;8.20;99.90;;;;;;5041770;28;20103;-42
2022/04/06 08:01:47;;;;;;;19.88;4.40;;;8.10;99.90;;;;;;5041867;28;20124;-41
2022/04/06 08:04:12;;;;;;;16.08;4.57;;;8.20;99.90;;;;;;5038611;28;20045;-41
2022/04/06 08:06:38;;;;;;;18.80;4.50;;;8.30;99.90;;;;;;5042132;28;20083;-41
2022/04/06 08:09:06;;;;;;;18.67;4.43;;;8.30;99.90;;;;;;5042893;28;20415;-41
2022/04/06 08:11:40;;;;;;;15.85;4.45;;;8.30;99.90;;;;;;5039557;28;20090;-41
2022/04/06 08:14:05;;;;;;;;;;;8.30;99.90;;;;;;5035397;28;20045;-43
2022/04/06 08:16:31;;;;;;;19.02;4.90;;;8.30;99.90;;;;;;5023481;28;20313;-43
2022/04/06 08:19:00;;;;;;;16.05;3.97;;;8.30;99.90;;;;;;5025141;28;20075;-42
2022/04/06 08:21:26;;;;;;;17.20;4.95;;;8.30;99.90;;;;;;5037148;28;20057;-41
2022/04/06 08:23:52;;;;;;;22.42;4.55;;;8.30;99.90;;;;;;5036712;28;20048;-42
2022/04/06 08:26:18;;;;;;;18.30;4.30;;;8.40;99.90;;;;;;5033536;28;20521;-41
2022/04/06 08:28:44;;;;;;;15.13;4.13;;;8.40;99.90;;;;;;5035354;28;20092;-41
2022/04/06 08:31:11;;;;;;;16.83;4.13;;;8.50;99.90;;;;;;5025624;28;20095;-41
2022/04/06 08:33:38;;;;;;;15.43;3.92;;;8.50;99.90;;;;;;5038432;28;20053;-41
2022/04/06 08:36:06;;;;;;;16.75;4.32;;;8.60;99.90;;;;;;5020399;28;20438;-42
2022/04/06 08:38:32;;;;;;;16.95;4.32;;;8.60;99.90;;;;;;5039150;28;20052;-41
2022/04/06 08:40:58;;;;;;;19.17;5.07;;;8.60;99.90;;;;;;5039602;28;20056;-42
2022/04/06 08:43:24;;;;;;;15.57;4.25;;;8.70;99.90;;;;;;5036391;28;20041;-41
2022/04/06 08:45:50;;;;;;;16.23;4.07;;;8.70;99.90;;;;;;5035427;28;20045;-41
2022/04/06 08:48:19;;;;;;;13.30;4.05;;;8.80;99.90;;;;;;5039137;28;20040;-42
2022/04/06 08:50:45;;;;;;;14.00;4.55;;;8.90;99.90;;;;;;5027504;28;20057;-42
2022/04/06 08:53:12;;;;;;;13.48;4.10;;;9.00;99.90;;;;;;5026532;28;20060;-42
2022/04/06 08:55:38;;;;;;;15.68;4.50;;;9.20;99.90;;;;;;5024627;28;20050;-41
2022/04/06 08:58:04;;;;;;;15.82;4.03;;;9.20;99.90;;;;;;5032307;28;20071;-41
2022/04/06 09:00:31;;;;;;;10.73;3.45;;;9.30;99.90;;;;;;5033888;28;20408;-42
2022/04/06 09:02:57;;;;;;;13.68;4.07;;;9.30;99.90;;;;;;5031732;28;20462;-43
2022/04/06 09:05:27;;;;;;;13.25;3.78;;;9.40;99.90;;;;;;5014735;28;20144;-42
2022/04/06 09:08:05;;;;;;;16.65;6.03;;;9.50;99.90;;;;;;5001636;28;20080;-42
2022/04/06 09:10:36;;;;;;;15.77;4.03;;;9.50;99.90;;;;;;5031248;28;20045;-42
2022/04/06 09:13:23;;;;;;;18.77;4.07;;;9.40;99.90;;;;;;5035657;28;20072;-41
2022/04/06 09:15:53;;;;;;;16.52;4.45;;;9.60;99.90;;;;;;5032595;28;20049;-43
2022/04/06 09:18:24;;;;;;;13.65;3.63;;;9.60;99.90;;;;;;5018787;28;20550;-44
2022/04/06 09:20:59;;;;;;;15.70;4.30;;;9.60;99.90;;;;;;5037496;28;20501;-42
2022/04/06 09:23:25;;;;;;;19.67;4.97;;;9.70;99.90;;;;;;5037146;28;20082;-42
2022/04/06 09:25:50;;;;;;;12.23;4.07;;;9.70;99.90;;;;;;5015812;28;20056;-44
2022/04/06 09:28:16;;;;;;;15.93;4.45;;;9.90;99.90;;;;;;5035583;28;20450;-43
2022/04/06 09:30:43;;;;;;;18.23;5.00;;;10.00;99.90;;;;;;5015742;28;20757;-42
2022/04/06 09:33:18;;;;;;;14.15;4.40;;;10.10;99.90;;;;;;5015205;28;20559;-42
2022/04/06 09:35:44;;;;;;;16.83;4.50;;;10.10;99.90;;;;;;5036197;28;20057;-43
2022/04/06 09:38:11;;;;;;;14.43;4.30;;;10.10;99.90;;;;;;5035571;28;20041;-42
2022/04/06 09:40:37;;;;;;;13.52;4.82;;;10.10;99.90;;;;;;5035901;28;20146;-42
2022/04/06 09:43:04;;;;;;;13.32;4.22;;;10.10;99.90;;;;;;5011246;28;20048;-43
2022/04/06 09:48:15;;;;;;;18.05;4.57;;;10.10;99.90;;;;;;5030789;28;20129;-42
2022/04/06 09:50:54;;;;;;;17.85;4.32;;;10.00;99.90;;;;;;5015503;28;20053;-42
2022/04/06 09:53:27;;;;;;;15.30;4.68;;;9.90;99.90;;;;;;5031615;28;20041;-43
2022/04/06 09:55:54;;;;;;;21.25;5.43;;;9.90;99.90;;;;;;5030059;28;20049;-42
2022/04/06 09:58:21;;;;;;;14.82;4.53;;;9.80;99.90;;;;;;5013501;28;20053;-42
2022/04/06 10:00:48;;;;;;;15.07;4.68;;;9.80;99.90;;;;;;5034036;28;20049;-42
2022/04/06 10:03:15;;;;;;;19.23;4.95;;;9.70;99.90;;;;;;5035608;28;20434;-42
2022/04/06 10:05:42;;;;;;;18.98;4.50;;;9.60;99.90;;;;;;5008058;28;20135;-42
2022/04/06 10:08:10;;;;;;;21.20;5.15;;;9.60;99.90;;;;;;5007697;28;20108;-42
2022/04/06 10:10:40;;;;;;;19.80;4.65;;;9.50;99.90;;;;;;5003983;28;20084;-42
2022/04/06 10:13:07;;;;;;;17.30;4.75;;;9.60;99.90;;;;;;5032876;28;20045;-42
2022/04/06 10:15:35;;;;;;;16.45;4.70;;;9.50;99.90;;;;;;5036202;28;20114;-42
2022/04/06 10:18:02;;;;;;;21.55;5.60;;;9.50;99.90;;;;;;5032625;28;20164;-42
2022/04/06 10:20:48;;;;;;;24.17;5.55;;;9.60;99.90;;;;;;5034425;28;20471;-41
2022/04/06 10:23:38;;;;;;;24.88;6.22;;;9.50;99.90;;;;;;5027555;28;20053;-41
2022/04/06 10:26:31;;;;;;;17.52;4.57;;;9.50;99.90;;;;;;5024155;28;20104;-42
2022/04/06 10:28:57;;;;;;;26.13;6.00;;;9.50;99.90;;;;;;5028668;28;20041;-43
2022/04/06 10:31:29;;;;;;;22.02;5.50;;;9.60;99.90;;;;;;5022089;28;20041;-41
2022/04/06 10:34:17;;;;;;;19.88;5.05;;;9.70;99.90;;;;;;5029282;28;20152;-44
2022/04/06 10:36:44;;;;;;;22.38;5.05;;;9.70;99.90;;;;;;5028072;28;20056;-42
2022/04/06 10:39:11;;;;;;;26.42;5.70;;;9.70;99.90;;;;;;5010951;28;20053;-43
2022/04/06 10:41:41;;;;;;;23.35;6.45;;;9.80;99.90;;;;;;5028334;28;20092;-42
2022/04/06 10:44:36;;;;;;;23.02;5.85;;;9.90;99.90;;;;;;4992879;28;20058;-43
2022/04/06 10:47:08;;;;;;;26.30;6.43;;;10.00;99.90;;;;;;5023551;28;20052;-42
2022/04/06 10:49:34;;;;;;;16.88;5.50;;;10.00;99.90;;;;;;5006053;28;20483;-42
2022/04/06 10:52:23;;;;;;;24.90;6.00;;;10.10;99.90;;;;;;5032724;28;20083;-43
2022/04/06 10:54:49;;;;;;;25.80;6.43;;;10.10;99.90;;;;;;5011157;28;20049;-42
2022/04/06 10:57:15;;;;;;;26.80;5.78;;;10.10;99.90;;;;;;5042256;28;20560;-42
2022/04/06 10:59:41;;;;;;;24.92;5.70;;;10.20;99.90;;;;;;5043113;28;20053;-42
2022/04/06 11:02:14;;;;;;;21.77;5.72;;;10.40;99.90;;;;;;5042816;28;20044;-42
2022/04/06 11:04:40;;;;;;;22.83;6.68;;;10.70;99.90;;;;;;5036939;28;20044;-44
2022/04/06 11:07:08;;;;;;;23.02;6.00;;;10.80;99.90;;;;;;5028379;28;20553;-42
2022/04/06 11:12:33;;;;;;;14.75;5.13;;;11.10;99.90;;;;;;5034235;28;20053;-44
2022/04/06 11:14:59;;;;;;;16.35;5.05;;;11.20;99.90;;;;;;5019125;28;20056;-43
2022/04/06 11:17:44;;;;;;;26.92;6.72;;;11.10;99.90;;;;;;5028096;28;20061;-44
2022/04/06 11:20:21;;;;;;;18.25;4.60;;;11.20;99.90;;;;;;5028809;28;20523;-42
2022/04/06 11:22:46;;;;;;;19.83;5.63;;;11.30;99.90;;;;;;5041709;28;20541;-42
2022/04/06 11:25:14;;;;;;;19.75;4.80;;;11.50;99.90;;;;;;5023812;28;20136;-42
2022/04/06 11:27:41;;;;;;;17.00;4.65;;;11.70;99.90;;;;;;5042392;28;20094;-42
2022/04/06 11:30:08;;;;;;;16.65;4.38;;;11.80;99.90;;;;;;5024994;28;20053;-44
2022/04/06 11:32:34;;;;;;;17.17;4.28;;;12.00;99.90;;;;;;5042697;28;20052;-42
2022/04/06 11:35:08;;;;;;;22.80;5.15;;;12.20;99.90;;;;;;5024245;28;20052;-43
2022/04/06 11:37:41;;;;;;;19.55;5.03;;;12.30;99.90;;;;;;5042623;28;20128;-43
2022/04/06 11:40:08;;;;;;;;;;;12.50;99.90;;;;;;5043839;28;20048;-42
2022/04/06 11:42:33;;;;;;;21.35;5.40;;;12.50;99.90;;;;;;5043045;28;19924;-42
2022/04/06 11:44:59;;;;;;;20.52;5.85;;;12.60;99.90;;;;;;5019693;28;20061;-43
2022/04/06 11:47:38;;;;;;;21.27;4.95;;;12.90;99.90;;;;;;5014322;28;20060;-43
2022/04/06 11:50:10;;;;;;;17.70;4.57;;;13.00;99.90;;;;;;5037178;28;20079;-43
2022/04/06 11:52:40;;;;;;;14.93;5.20;;;13.00;99.90;;;;;;5020581;28;20056;-43
2022/04/06 11:55:07;;;;;;;16.08;4.50;;;13.00;99.90;;;;;;5030570;28;20036;-43
2022/04/06 11:57:49;;;;;;;24.35;6.53;;;13.00;99.90;;;;;;5030081;28;20092;-44
2022/04/06 12:00:17;;;;;;;13.25;4.80;;;13.10;99.90;;;;;;5039960;28;20102;-43
2022/04/06 12:02:55;;;;;;;25.15;6.03;;;13.10;99.90;;;;;;5036917;28;20064;-43
2022/04/06 12:05:23;;;;;;;15.48;4.18;;;13.20;99.90;;;;;;5036576;28;20053;-45
2022/04/06 12:08:12;;;;;;;17.70;5.93;;;13.10;99.90;;;;;;5021100;28;20503;-44
2022/04/06 12:10:51;;;;;;;19.27;4.53;;;13.00;99.90;;;;;;5024536;28;20049;-43
2022/04/06 12:13:18;;;;;;;13.93;4.57;;;12.90;99.90;;;;;;5031041;28;20198;-43
2022/04/06 12:15:48;;;;;;;14.73;4.80;;;12.80;99.90;;;;;;5013063;28;20126;-42
2022/04/06 12:18:18;;;;;;;19.98;4.93;;;12.60;99.90;;;;;;5034381;28;20145;-43
2022/04/06 12:20:48;;;;;;;12.32;3.85;;;12.50;99.90;;;;;;5023149;28;20491;-43
2022/04/06 12:23:16;;;;;;;16.85;4.53;;;12.40;99.90;;;;;;5033976;28;20128;-43
2022/04/06 12:25:42;;;;;;;19.73;4.68;;;12.40;99.90;;;;;;5029381;28;20517;-42
2022/04/06 12:28:17;;;;;;;18.02;5.32;;;12.30;99.90;;;;;;5027549;28;20041;-43
2022/04/06 12:31:02;;;;;;;18.08;4.40;;;12.20;99.90;;;;;;5033085;28;20053;-43
2022/04/06 12:33:47;;;;;;;17.55;5.05;;;12.20;99.90;;;;;;5026081;28;20482;-43
2022/04/06 12:36:30;;;;;;;19.50;3.70;;;12.20;99.90;;;;;;5028493;28;20059;-42
2022/04/06 12:39:13;;;;;;;18.42;4.40;;;12.30;99.90;;;;;;5021926;28;20041;-42
2022/04/06 12:41:59;;;;;;;14.23;3.63;;;12.40;99.90;;;;;;5023007;28;20524;-42
2022/04/06 12:44:32;;;;;;;19.58;4.53;;;12.50;99.90;;;;;;5024574;28;20049;-42
2022/04/06 12:46:59;;;;;;;14.03;4.17;;;12.50;99.90;;;;;;5026767;28;20041;-43
2022/04/06 12:49:26;;;;;;;13.27;3.85;;;12.40;99.90;;;;;;5033681;28;20753;-43
2022/04/06 12:52:15;;;;;;;16.52;3.85;;;12.40;99.90;;;;;;5027472;28;20554;-43
2022/04/06 12:54:44;;;;;;;15.15;3.63;;;12.30;99.90;;;;;;5025508;28;20083;-42
2022/04/06 12:57:28;;;;;;;18.20;4.70;;;12.30;99.90;;;;;;5034834;28;20060;-42
2022/04/06 12:59:58;;;;;;;14.98;4.03;;;12.20;99.90;;;;;;5032011;28;20049;-43
2022/04/06 13:02:34;;;;;;;15.57;4.88;;;12.20;99.90;;;;;;5034868;28;20053;-43
2022/04/06 13:05:05;;;;;;;11.23;3.55;;;12.20;99.90;;;;;;5016598;28;20130;-43
2022/04/06 13:07:32;;;;;;;16.38;5.18;;;12.30;99.90;;;;;;5038359;28;20060;-42